sensor_id;sensor_type;location;lat;lon;timestamp;P1;durP1;ratioP1;P2;durP2;ratioP2
55292;SDS011;41157;53.560;10.098;2022-11-20T00:00:09;5.37;;;3.00;;
55292;SDS011;41157;53.560;10.098;2022-11-20T00:02:35;5.90;;;3.13;;
55292;SDS011;41157;53.560;10.098;2022-11-20T00:05:01;3.57;;;3.00;;
55292;SDS011;41157;53.560;10.098;2022-11-20T00:07:27;3.30;;;2.90;;
55292;SDS011;41157;53.560;10.098;2022-11-20T00:09:52;4.00;;;2.63;;
55292;SDS011;41157;53.560;10.098;2022-11-20T00:12:18;5.43;;;3.13;;
55292;SDS011;41157;53.560;10.098;2022-11-20T00:14:44;7.90;;;3.03;;
55292;SDS011;41157;53.560;10.098;2022-11-20T00:17:10;5.47;;;3.10;;
55292;SDS011;41157;53.560;10.098;2022-11-20T00:19:36;6.53;;;3.30;;
55292;SDS011;41157;53.560;10.098;2022-11-20T00:22:02;6.43;;;2.87;;
55292;SDS011;41157;53.560;10.098;2022-11-20T00:24:28;4.60;;;2.80;;
55292;SDS011;41157;53.560;10.098;2022-11-20T00:26:54;5.33;;;3.60;;
55292;SDS011;41157;53.560;10.098;2022-11-20T00:29:20;5.00;;;3.00;;
55292;SDS011;41157;53.560;10.098;2022-11-20T00:31:46;4.47;;;3.37;;
55292;SDS011;41157;53.560;10.098;2022-11-20T00:34:12;5.97;;;3.00;;
55292;SDS011;41157;53.560;10.098;2022-11-20T00:36:38;4.20;;;2.90;;
55292;SDS011;41157;53.560;10.098;2022-11-20T00:39:04;6.47;;;3.40;;
55292;SDS011;41157;53.560;10.098;2022-11-20T00:41:30;5.00;;;3.13;;
55292;SDS011;41157;53.560;10.098;2022-11-20T00:43:56;5.33;;;3.03;;
55292;SDS011;41157;53.560;10.098;2022-11-20T00:46:23;5.27;;;3.47;;
55292;SDS011;41157;53.560;10.098;2022-11-20T00:48:50;5.00;;;3.10;;
55292;SDS011;41157;53.560;10.098;2022-11-20T00:51:16;5.00;;;3.20;;
55292;SDS011;41157;53.560;10.098;2022-11-20T00:53:44;12.27;;;3.40;;
55292;SDS011;41157;53.560;10.098;2022-11-20T00:56:11;6.43;;;3.40;;
55292;SDS011;41157;53.560;10.098;2022-11-20T00:58:38;4.20;;;3.17;;
55292;SDS011;41157;53.560;10.098;2022-11-20T01:03:34;4.00;;;2.97;;
55292;SDS011;41157;53.560;10.098;2022-11-20T01:06:04;4.10;;;2.83;;
55292;SDS011;41157;53.560;10.098;2022-11-20T01:08:31;6.03;;;2.83;;
55292;SDS011;41157;53.560;10.098;2022-11-20T01:11:01;3.23;;;2.80;;
55292;SDS011;41157;53.560;10.098;2022-11-20T01:13:28;4.17;;;2.90;;
55292;SDS011;41157;53.560;10.098;2022-11-20T01:16:16;3.80;;;2.93;;
55292;SDS011;41157;53.560;10.098;2022-11-20T01:18:43;5.27;;;2.80;;
55292;SDS011;41157;53.560;10.098;2022-11-20T01:21:14;5.53;;;3.03;;
55292;SDS011;41157;53.560;10.098;2022-11-20T01:23:40;4.10;;;3.07;;
55292;SDS011;41157;53.560;10.098;2022-11-20T01:26:08;5.33;;;3.77;;
55292;SDS011;41157;53.560;10.098;2022-11-20T01:28:35;5.17;;;3.17;;
55292;SDS011;41157;53.560;10.098;2022-11-20T01:31:01;5.40;;;3.40;;
55292;SDS011;41157;53.560;10.098;2022-11-20T01:33:27;6.57;;;3.07;;
55292;SDS011;41157;53.560;10.098;2022-11-20T01:35:53;3.30;;;2.40;;
55292;SDS011;41157;53.560;10.098;2022-11-20T01:38:28;4.70;;;2.80;;
55292;SDS011;41157;53.560;10.098;2022-11-20T01:40:54;4.60;;;3.30;;
55292;SDS011;41157;53.560;10.098;2022-11-20T01:43:20;3.40;;;2.87;;
55292;SDS011;41157;53.560;10.098;2022-11-20T01:45:53;5.40;;;3.20;;
55292;SDS011;41157;53.560;10.098;2022-11-20T01:48:22;3.93;;;2.90;;
55292;SDS011;41157;53.560;10.098;2022-11-20T01:50:49;6.00;;;3.50;;
55292;SDS011;41157;53.560;10.098;2022-11-20T01:53:16;4.07;;;3.00;;
55292;SDS011;41157;53.560;10.098;2022-11-20T01:55:45;6.23;;;3.20;;
55292;SDS011;41157;53.560;10.098;2022-11-20T01:58:12;5.43;;;3.63;;
55292;SDS011;41157;53.560;10.098;2022-11-20T02:00:39;3.43;;;3.03;;
55292;SDS011;41157;53.560;10.098;2022-11-20T02:03:09;4.33;;;3.20;;
55292;SDS011;41157;53.560;10.098;2022-11-20T02:05:47;6.33;;;3.37;;
55292;SDS011;41157;53.560;10.098;2022-11-20T02:08:15;5.00;;;3.60;;
55292;SDS011;41157;53.560;10.098;2022-11-20T02:10:41;4.97;;;3.30;;
55292;SDS011;41157;53.560;10.098;2022-11-20T02:13:07;4.03;;;3.23;;
55292;SDS011;41157;53.560;10.098;2022-11-20T02:15:52;3.10;;;2.90;;
55292;SDS011;41157;53.560;10.098;2022-11-20T02:18:18;3.70;;;3.20;;
55292;SDS011;41157;53.560;10.098;2022-11-20T02:20:45;4.53;;;3.13;;
55292;SDS011;41157;53.560;10.098;2022-11-20T02:23:12;5.73;;;3.30;;
55292;SDS011;41157;53.560;10.098;2022-11-20T02:25:42;4.17;;;3.40;;
55292;SDS011;41157;53.560;10.098;2022-11-20T02:28:08;6.63;;;3.40;;
55292;SDS011;41157;53.560;10.098;2022-11-20T02:30:34;4.63;;;3.50;;
55292;SDS011;41157;53.560;10.098;2022-11-20T02:33:00;4.40;;;3.17;;
55292;SDS011;41157;53.560;10.098;2022-11-20T02:37:55;4.20;;;3.10;;
55292;SDS011;41157;53.560;10.098;2022-11-20T02:40:22;4.33;;;2.87;;
55292;SDS011;41157;53.560;10.098;2022-11-20T02:42:51;4.00;;;3.23;;
55292;SDS011;41157;53.560;10.098;2022-11-20T02:45:17;5.77;;;3.40;;
55292;SDS011;41157;53.560;10.098;2022-11-20T02:47:43;4.53;;;3.07;;
55292;SDS011;41157;53.560;10.098;2022-11-20T02:50:09;9.97;;;3.40;;
55292;SDS011;41157;53.560;10.098;2022-11-20T02:52:35;3.93;;;3.00;;
55292;SDS011;41157;53.560;10.098;2022-11-20T02:55:01;4.63;;;3.17;;
55292;SDS011;41157;53.560;10.098;2022-11-20T02:57:27;9.20;;;3.30;;
55292;SDS011;41157;53.560;10.098;2022-11-20T02:59:53;3.83;;;3.10;;
55292;SDS011;41157;53.560;10.098;2022-11-20T03:02:19;4.00;;;3.27;;
55292;SDS011;41157;53.560;10.098;2022-11-20T03:04:45;4.03;;;3.13;;
55292;SDS011;41157;53.560;10.098;2022-11-20T03:07:11;5.53;;;3.00;;
55292;SDS011;41157;53.560;10.098;2022-11-20T03:09:37;5.63;;;3.23;;
55292;SDS011;41157;53.560;10.098;2022-11-20T03:12:03;3.30;;;3.00;;
55292;SDS011;41157;53.560;10.098;2022-11-20T03:14:29;3.30;;;2.77;;
55292;SDS011;41157;53.560;10.098;2022-11-20T03:16:55;4.77;;;3.40;;
55292;SDS011;41157;53.560;10.098;2022-11-20T03:19:21;4.83;;;2.60;;
55292;SDS011;41157;53.560;10.098;2022-11-20T03:21:47;4.30;;;3.13;;
55292;SDS011;41157;53.560;10.098;2022-11-20T03:24:13;4.27;;;2.80;;
55292;SDS011;41157;53.560;10.098;2022-11-20T03:26:39;3.60;;;3.07;;
55292;SDS011;41157;53.560;10.098;2022-11-20T03:29:05;4.10;;;2.90;;
55292;SDS011;41157;53.560;10.098;2022-11-20T03:31:33;6.00;;;3.33;;
55292;SDS011;41157;53.560;10.098;2022-11-20T03:34:00;6.77;;;3.23;;
55292;SDS011;41157;53.560;10.098;2022-11-20T03:36:26;4.40;;;3.17;;
55292;SDS011;41157;53.560;10.098;2022-11-20T03:38:53;4.23;;;3.10;;
55292;SDS011;41157;53.560;10.098;2022-11-20T03:41:20;3.93;;;3.03;;
55292;SDS011;41157;53.560;10.098;2022-11-20T03:43:50;4.03;;;2.97;;
55292;SDS011;41157;53.560;10.098;2022-11-20T03:46:16;6.13;;;2.90;;
55292;SDS011;41157;53.560;10.098;2022-11-20T03:48:42;4.07;;;2.60;;
55292;SDS011;41157;53.560;10.098;2022-11-20T03:51:15;7.30;;;3.23;;
55292;SDS011;41157;53.560;10.098;2022-11-20T03:53:42;5.13;;;3.30;;
55292;SDS011;41157;53.560;10.098;2022-11-20T03:56:08;4.23;;;2.90;;
55292;SDS011;41157;53.560;10.098;2022-11-20T03:58:35;5.43;;;3.07;;
55292;SDS011;41157;53.560;10.098;2022-11-20T04:01:11;10.47;;;3.40;;
55292;SDS011;41157;53.560;10.098;2022-11-20T04:03:38;3.97;;;2.83;;
55292;SDS011;41157;53.560;10.098;2022-11-20T04:06:14;4.37;;;2.87;;
55292;SDS011;41157;53.560;10.098;2022-11-20T04:08:41;5.47;;;3.57;;
55292;SDS011;41157;53.560;10.098;2022-11-20T04:13:42;4.13;;;2.77;;
55292;SDS011;41157;53.560;10.098;2022-11-20T04:16:09;3.63;;;2.87;;
55292;SDS011;41157;53.560;10.098;2022-11-20T04:18:35;3.20;;;2.90;;
55292;SDS011;41157;53.560;10.098;2022-11-20T04:21:02;5.77;;;2.90;;
55292;SDS011;41157;53.560;10.098;2022-11-20T04:23:28;4.03;;;2.80;;
55292;SDS011;41157;53.560;10.098;2022-11-20T04:25:54;3.27;;;2.97;;
55292;SDS011;41157;53.560;10.098;2022-11-20T04:28:20;4.13;;;3.10;;
55292;SDS011;41157;53.560;10.098;2022-11-20T04:30:46;4.93;;;2.90;;
55292;SDS011;41157;53.560;10.098;2022-11-20T04:33:12;5.60;;;3.37;;
55292;SDS011;41157;53.560;10.098;2022-11-20T04:35:38;4.40;;;3.10;;
55292;SDS011;41157;53.560;10.098;2022-11-20T04:38:04;4.30;;;3.37;;
55292;SDS011;41157;53.560;10.098;2022-11-20T04:40:30;7.87;;;3.37;;
55292;SDS011;41157;53.560;10.098;2022-11-20T04:42:56;4.37;;;3.00;;
55292;SDS011;41157;53.560;10.098;2022-11-20T04:45:22;7.17;;;3.20;;
55292;SDS011;41157;53.560;10.098;2022-11-20T04:47:48;4.10;;;2.87;;
55292;SDS011;41157;53.560;10.098;2022-11-20T04:50:14;5.57;;;3.10;;
55292;SDS011;41157;53.560;10.098;2022-11-20T04:52:40;3.43;;;2.93;;
55292;SDS011;41157;53.560;10.098;2022-11-20T04:55:06;4.37;;;3.07;;
55292;SDS011;41157;53.560;10.098;2022-11-20T04:57:32;4.07;;;3.40;;
55292;SDS011;41157;53.560;10.098;2022-11-20T04:59:58;4.33;;;3.20;;
55292;SDS011;41157;53.560;10.098;2022-11-20T05:02:24;3.30;;;3.00;;
55292;SDS011;41157;53.560;10.098;2022-11-20T05:04:50;6.13;;;3.17;;
55292;SDS011;41157;53.560;10.098;2022-11-20T05:07:16;4.30;;;3.17;;
55292;SDS011;41157;53.560;10.098;2022-11-20T05:09:42;5.70;;;2.90;;
55292;SDS011;41157;53.560;10.098;2022-11-20T05:12:08;4.33;;;3.40;;
55292;SDS011;41157;53.560;10.098;2022-11-20T05:14:34;3.17;;;2.77;;
55292;SDS011;41157;53.560;10.098;2022-11-20T05:17:00;4.07;;;3.00;;
55292;SDS011;41157;53.560;10.098;2022-11-20T05:19:26;3.53;;;2.87;;
55292;SDS011;41157;53.560;10.098;2022-11-20T05:21:52;5.47;;;3.03;;
55292;SDS011;41157;53.560;10.098;2022-11-20T05:24:18;5.83;;;3.30;;
55292;SDS011;41157;53.560;10.098;2022-11-20T05:26:44;10.47;;;3.33;;
55292;SDS011;41157;53.560;10.098;2022-11-20T05:29:11;5.30;;;2.87;;
55292;SDS011;41157;53.560;10.098;2022-11-20T05:31:38;4.40;;;2.90;;
55292;SDS011;41157;53.560;10.098;2022-11-20T05:34:04;5.03;;;2.97;;
55292;SDS011;41157;53.560;10.098;2022-11-20T05:36:30;5.70;;;3.23;;
55292;SDS011;41157;53.560;10.098;2022-11-20T05:38:56;5.37;;;2.80;;
55292;SDS011;41157;53.560;10.098;2022-11-20T05:41:22;6.07;;;3.27;;
55292;SDS011;41157;53.560;10.098;2022-11-20T05:43:48;5.50;;;3.20;;
55292;SDS011;41157;53.560;10.098;2022-11-20T05:46:15;6.87;;;3.43;;
55292;SDS011;41157;53.560;10.098;2022-11-20T05:48:42;6.00;;;3.87;;
55292;SDS011;41157;53.560;10.098;2022-11-20T05:51:11;5.93;;;3.70;;
55292;SDS011;41157;53.560;10.098;2022-11-20T05:53:37;5.00;;;3.30;;
55292;SDS011;41157;53.560;10.098;2022-11-20T05:56:07;4.07;;;3.30;;
55292;SDS011;41157;53.560;10.098;2022-11-20T05:58:34;5.33;;;3.60;;
55292;SDS011;41157;53.560;10.098;2022-11-20T06:01:11;4.47;;;3.60;;
55292;SDS011;41157;53.560;10.098;2022-11-20T06:03:37;5.10;;;3.00;;
55292;SDS011;41157;53.560;10.098;2022-11-20T06:06:04;4.10;;;3.30;;
55292;SDS011;41157;53.560;10.098;2022-11-20T06:08:31;17.53;;;4.17;;
55292;SDS011;41157;53.560;10.098;2022-11-20T06:10:57;6.10;;;3.43;;
55292;SDS011;41157;53.560;10.098;2022-11-20T06:13:23;3.40;;;3.07;;
55292;SDS011;41157;53.560;10.098;2022-11-20T06:15:49;3.93;;;3.53;;
55292;SDS011;41157;53.560;10.098;2022-11-20T06:18:15;5.73;;;3.33;;
55292;SDS011;41157;53.560;10.098;2022-11-20T06:20:41;3.80;;;3.40;;
55292;SDS011;41157;53.560;10.098;2022-11-20T06:23:07;4.20;;;3.20;;
55292;SDS011;41157;53.560;10.098;2022-11-20T06:25:36;5.23;;;3.00;;
55292;SDS011;41157;53.560;10.098;2022-11-20T06:28:02;7.93;;;3.10;;
55292;SDS011;41157;53.560;10.098;2022-11-20T06:30:28;3.67;;;3.20;;
55292;SDS011;41157;53.560;10.098;2022-11-20T06:32:54;4.97;;;3.50;;
55292;SDS011;41157;53.560;10.098;2022-11-20T06:35:20;5.93;;;3.37;;
55292;SDS011;41157;53.560;10.098;2022-11-20T06:37:46;5.70;;;4.40;;
55292;SDS011;41157;53.560;10.098;2022-11-20T06:40:12;6.07;;;4.33;;
55292;SDS011;41157;53.560;10.098;2022-11-20T06:42:38;7.83;;;4.73;;
55292;SDS011;41157;53.560;10.098;2022-11-20T06:45:04;7.27;;;5.37;;
55292;SDS011;41157;53.560;10.098;2022-11-20T06:47:30;8.67;;;5.40;;
55292;SDS011;41157;53.560;10.098;2022-11-20T06:49:56;8.63;;;6.03;;
55292;SDS011;41157;53.560;10.098;2022-11-20T06:52:22;8.60;;;6.23;;
55292;SDS011;41157;53.560;10.098;2022-11-20T06:54:48;10.50;;;7.07;;
55292;SDS011;41157;53.560;10.098;2022-11-20T06:57:14;9.33;;;7.20;;
55292;SDS011;41157;53.560;10.098;2022-11-20T06:59:40;10.50;;;6.83;;
55292;SDS011;41157;53.560;10.098;2022-11-20T07:02:08;11.13;;;7.77;;
55292;SDS011;41157;53.560;10.098;2022-11-20T07:04:35;10.70;;;7.03;;
55292;SDS011;41157;53.560;10.098;2022-11-20T07:07:01;9.13;;;6.60;;
55292;SDS011;41157;53.560;10.098;2022-11-20T07:09:27;8.37;;;6.80;;
55292;SDS011;41157;53.560;10.098;2022-11-20T07:11:53;7.33;;;5.97;;
55292;SDS011;41157;53.560;10.098;2022-11-20T07:14:19;6.40;;;5.67;;
55292;SDS011;41157;53.560;10.098;2022-11-20T07:16:45;11.93;;;6.10;;
55292;SDS011;41157;53.560;10.098;2022-11-20T07:19:11;9.53;;;6.17;;
55292;SDS011;41157;53.560;10.098;2022-11-20T07:21:37;8.37;;;6.40;;
55292;SDS011;41157;53.560;10.098;2022-11-20T07:24:03;6.03;;;5.27;;
55292;SDS011;41157;53.560;10.098;2022-11-20T07:26:29;6.53;;;5.17;;
55292;SDS011;41157;53.560;10.098;2022-11-20T07:28:55;7.13;;;5.30;;
55292;SDS011;41157;53.560;10.098;2022-11-20T07:31:21;9.47;;;4.60;;
55292;SDS011;41157;53.560;10.098;2022-11-20T07:33:47;6.17;;;4.50;;
55292;SDS011;41157;53.560;10.098;2022-11-20T07:36:13;5.83;;;4.03;;
55292;SDS011;41157;53.560;10.098;2022-11-20T07:38:39;4.53;;;3.90;;
55292;SDS011;41157;53.560;10.098;2022-11-20T07:41:05;4.03;;;3.63;;
55292;SDS011;41157;53.560;10.098;2022-11-20T07:43:31;6.60;;;3.83;;
55292;SDS011;41157;53.560;10.098;2022-11-20T07:45:57;6.27;;;3.63;;
55292;SDS011;41157;53.560;10.098;2022-11-20T07:48:23;5.33;;;3.83;;
55292;SDS011;41157;53.560;10.098;2022-11-20T07:50:52;7.50;;;3.80;;
55292;SDS011;41157;53.560;10.098;2022-11-20T07:53:18;4.97;;;3.40;;
55292;SDS011;41157;53.560;10.098;2022-11-20T07:55:46;4.57;;;3.90;;
55292;SDS011;41157;53.560;10.098;2022-11-20T07:58:12;5.87;;;4.00;;
55292;SDS011;41157;53.560;10.098;2022-11-20T08:00:41;5.33;;;4.00;;
55292;SDS011;41157;53.560;10.098;2022-11-20T08:03:07;5.47;;;4.00;;
55292;SDS011;41157;53.560;10.098;2022-11-20T08:05:33;5.33;;;4.07;;
55292;SDS011;41157;53.560;10.098;2022-11-20T08:07:59;9.67;;;4.10;;
55292;SDS011;41157;53.560;10.098;2022-11-20T08:10:25;6.23;;;4.23;;
55292;SDS011;41157;53.560;10.098;2022-11-20T08:12:51;7.30;;;4.77;;
55292;SDS011;41157;53.560;10.098;2022-11-20T08:15:37;5.00;;;4.23;;
55292;SDS011;41157;53.560;10.098;2022-11-20T08:18:05;5.20;;;4.13;;
55292;SDS011;41157;53.560;10.098;2022-11-20T08:20:31;5.73;;;4.60;;
55292;SDS011;41157;53.560;10.098;2022-11-20T08:22:57;9.17;;;4.50;;
55292;SDS011;41157;53.560;10.098;2022-11-20T08:25:24;9.00;;;4.87;;
55292;SDS011;41157;53.560;10.098;2022-11-20T08:27:50;6.33;;;4.90;;
55292;SDS011;41157;53.560;10.098;2022-11-20T08:30:16;7.07;;;5.00;;
55292;SDS011;41157;53.560;10.098;2022-11-20T08:32:42;4.77;;;4.27;;
55292;SDS011;41157;53.560;10.098;2022-11-20T08:35:08;5.00;;;3.93;;
55292;SDS011;41157;53.560;10.098;2022-11-20T08:37:34;4.50;;;4.10;;
55292;SDS011;41157;53.560;10.098;2022-11-20T08:40:00;4.60;;;4.10;;
55292;SDS011;41157;53.560;10.098;2022-11-20T08:42:26;4.50;;;3.40;;
55292;SDS011;41157;53.560;10.098;2022-11-20T08:44:52;3.67;;;3.23;;
55292;SDS011;41157;53.560;10.098;2022-11-20T08:47:18;4.63;;;3.50;;
55292;SDS011;41157;53.560;10.098;2022-11-20T08:49:44;3.93;;;3.23;;
55292;SDS011;41157;53.560;10.098;2022-11-20T08:52:10;4.63;;;3.30;;
55292;SDS011;41157;53.560;10.098;2022-11-20T08:54:36;3.20;;;2.83;;
55292;SDS011;41157;53.560;10.098;2022-11-20T08:57:02;3.60;;;2.77;;
55292;SDS011;41157;53.560;10.098;2022-11-20T08:59:27;5.17;;;3.20;;
55292;SDS011;41157;53.560;10.098;2022-11-20T09:01:54;3.13;;;2.60;;
55292;SDS011;41157;53.560;10.098;2022-11-20T09:04:20;3.80;;;3.00;;
55292;SDS011;41157;53.560;10.098;2022-11-20T09:06:46;3.00;;;2.57;;
55292;SDS011;41157;53.560;10.098;2022-11-20T09:09:15;2.73;;;2.40;;
55292;SDS011;41157;53.560;10.098;2022-11-20T09:11:41;3.00;;;2.50;;
55292;SDS011;41157;53.560;10.098;2022-11-20T09:14:07;4.40;;;2.63;;
55292;SDS011;41157;53.560;10.098;2022-11-20T09:16:33;3.83;;;2.50;;
55292;SDS011;41157;53.560;10.098;2022-11-20T09:18:59;3.73;;;3.37;;
55292;SDS011;41157;53.560;10.098;2022-11-20T09:21:25;3.80;;;3.50;;
55292;SDS011;41157;53.560;10.098;2022-11-20T09:23:51;4.13;;;3.73;;
55292;SDS011;41157;53.560;10.098;2022-11-20T09:26:17;8.33;;;3.43;;
55292;SDS011;41157;53.560;10.098;2022-11-20T09:28:44;4.17;;;2.90;;
55292;SDS011;41157;53.560;10.098;2022-11-20T09:31:23;3.47;;;3.13;;
55292;SDS011;41157;53.560;10.098;2022-11-20T09:33:49;2.90;;;2.70;;
55292;SDS011;41157;53.560;10.098;2022-11-20T09:36:15;3.37;;;2.90;;
55292;SDS011;41157;53.560;10.098;2022-11-20T09:38:43;3.47;;;2.80;;
55292;SDS011;41157;53.560;10.098;2022-11-20T09:41:10;2.60;;;2.40;;
55292;SDS011;41157;53.560;10.098;2022-11-20T09:44:02;2.93;;;2.43;;
55292;SDS011;41157;53.560;10.098;2022-11-20T09:46:42;2.60;;;2.40;;
55292;SDS011;41157;53.560;10.098;2022-11-20T09:52:46;3.37;;;2.70;;
55292;SDS011;41157;53.560;10.098;2022-11-20T09:54:37;2.77;;;2.47;;
55292;SDS011;41157;53.560;10.098;2022-11-20T09:57:14;3.27;;;2.97;;
55292;SDS011;41157;53.560;10.098;2022-11-20T09:59:45;3.63;;;2.93;;
55292;SDS011;41157;53.560;10.098;2022-11-20T10:02:15;4.23;;;3.03;;
55292;SDS011;41157;53.560;10.098;2022-11-20T10:04:47;3.70;;;2.90;;
55292;SDS011;41157;53.560;10.098;2022-11-20T10:07:16;3.17;;;2.90;;
55292;SDS011;41157;53.560;10.098;2022-11-20T10:09:46;2.63;;;2.43;;
55292;SDS011;41157;53.560;10.098;2022-11-20T10:12:17;2.90;;;2.57;;
55292;SDS011;41157;53.560;10.098;2022-11-20T10:19:49;2.43;;;2.23;;
55292;SDS011;41157;53.560;10.098;2022-11-20T10:25:05;2.83;;;2.57;;
55292;SDS011;41157;53.560;10.098;2022-11-20T10:30:19;2.73;;;2.37;;
55292;SDS011;41157;53.560;10.098;2022-11-20T10:32:48;3.43;;;3.03;;
55292;SDS011;41157;53.560;10.098;2022-11-20T10:35:18;5.87;;;2.70;;
55292;SDS011;41157;53.560;10.098;2022-11-20T10:37:46;3.17;;;2.83;;
55292;SDS011;41157;53.560;10.098;2022-11-20T10:40:30;3.00;;;2.70;;
55292;SDS011;41157;53.560;10.098;2022-11-20T10:43:12;3.67;;;2.73;;
55292;SDS011;41157;53.560;10.098;2022-11-20T10:45:49;2.80;;;2.60;;
55292;SDS011;41157;53.560;10.098;2022-11-20T10:48:19;3.13;;;2.60;;
55292;SDS011;41157;53.560;10.098;2022-11-20T10:51:33;3.37;;;2.43;;
55292;SDS011;41157;53.560;10.098;2022-11-20T11:01:17;4.73;;;2.73;;
55292;SDS011;41157;53.560;10.098;2022-11-20T11:03:43;4.07;;;2.83;;
55292;SDS011;41157;53.560;10.098;2022-11-20T11:06:29;4.60;;;3.00;;
55292;SDS011;41157;53.560;10.098;2022-11-20T11:08:58;3.07;;;2.70;;
55292;SDS011;41157;53.560;10.098;2022-11-20T11:11:31;2.57;;;2.37;;
55292;SDS011;41157;53.560;10.098;2022-11-20T11:14:05;2.60;;;2.40;;
55292;SDS011;41157;53.560;10.098;2022-11-20T11:16:31;4.33;;;2.47;;
55292;SDS011;41157;53.560;10.098;2022-11-20T11:19:07;2.47;;;2.27;;
55292;SDS011;41157;53.560;10.098;2022-11-20T11:21:33;2.50;;;2.30;;
55292;SDS011;41157;53.560;10.098;2022-11-20T11:24:01;2.40;;;2.20;;
55292;SDS011;41157;53.560;10.098;2022-11-20T11:26:28;3.40;;;2.80;;
55292;SDS011;41157;53.560;10.098;2022-11-20T11:28:58;3.27;;;2.73;;
55292;SDS011;41157;53.560;10.098;2022-11-20T11:31:28;3.60;;;2.77;;
55292;SDS011;41157;53.560;10.098;2022-11-20T11:34:03;2.53;;;2.27;;
55292;SDS011;41157;53.560;10.098;2022-11-20T11:36:29;2.53;;;2.30;;
55292;SDS011;41157;53.560;10.098;2022-11-20T11:38:55;2.67;;;2.47;;
55292;SDS011;41157;53.560;10.098;2022-11-20T11:41:25;3.27;;;2.20;;
55292;SDS011;41157;53.560;10.098;2022-11-20T11:43:54;2.90;;;2.70;;
55292;SDS011;41157;53.560;10.098;2022-11-20T11:46:39;3.87;;;2.77;;
55292;SDS011;41157;53.560;10.098;2022-11-20T11:54:20;2.80;;;2.50;;
55292;SDS011;41157;53.560;10.098;2022-11-20T11:56:48;2.50;;;2.30;;
55292;SDS011;41157;53.560;10.098;2022-11-20T11:59:23;9.40;;;5.13;;
55292;SDS011;41157;53.560;10.098;2022-11-20T12:01:55;4.37;;;2.90;;
55292;SDS011;41157;53.560;10.098;2022-11-20T12:04:27;8.20;;;3.73;;
55292;SDS011;41157;53.560;10.098;2022-11-20T12:07:01;3.07;;;2.67;;
55292;SDS011;41157;53.560;10.098;2022-11-20T12:09:34;3.63;;;2.13;;
55292;SDS011;41157;53.560;10.098;2022-11-20T12:12:05;2.67;;;2.20;;
55292;SDS011;41157;53.560;10.098;2022-11-20T12:14:35;2.87;;;2.67;;
55292;SDS011;41157;53.560;10.098;2022-11-20T12:17:02;3.50;;;2.30;;
55292;SDS011;41157;53.560;10.098;2022-11-20T12:19:29;2.30;;;2.10;;
55292;SDS011;41157;53.560;10.098;2022-11-20T12:22:09;2.27;;;2.00;;
55292;SDS011;41157;53.560;10.098;2022-11-20T12:24:45;2.17;;;2.00;;
55292;SDS011;41157;53.560;10.098;2022-11-20T12:30:10;2.10;;;1.90;;
55292;SDS011;41157;53.560;10.098;2022-11-20T12:43:30;2.47;;;2.27;;
55292;SDS011;41157;53.560;10.098;2022-11-20T12:46:18;2.50;;;2.30;;
55292;SDS011;41157;53.560;10.098;2022-11-20T12:51:35;3.70;;;2.60;;
55292;SDS011;41157;53.560;10.098;2022-11-20T12:54:15;2.20;;;2.00;;
55292;SDS011;41157;53.560;10.098;2022-11-20T13:02:01;3.80;;;2.60;;
55292;SDS011;41157;53.560;10.098;2022-11-20T13:04:50;2.43;;;2.13;;
55292;SDS011;41157;53.560;10.098;2022-11-20T13:07:20;2.43;;;2.23;;
55292;SDS011;41157;53.560;10.098;2022-11-20T13:09:47;2.37;;;2.13;;
55292;SDS011;41157;53.560;10.098;2022-11-20T13:12:36;2.30;;;2.10;;
55292;SDS011;41157;53.560;10.098;2022-11-20T13:17:47;2.60;;;2.23;;
55292;SDS011;41157;53.560;10.098;2022-11-20T13:20:17;2.50;;;2.30;;
55292;SDS011;41157;53.560;10.098;2022-11-20T13:22:48;2.77;;;2.30;;
55292;SDS011;41157;53.560;10.098;2022-11-20T13:27:49;2.50;;;2.30;;
55292;SDS011;41157;53.560;10.098;2022-11-20T13:30:16;2.60;;;2.30;;
55292;SDS011;41157;53.560;10.098;2022-11-20T13:32:56;2.40;;;2.20;;
55292;SDS011;41157;53.560;10.098;2022-11-20T13:35:26;2.53;;;2.10;;
55292;SDS011;41157;53.560;10.098;2022-11-20T13:38:00;2.57;;;2.30;;
55292;SDS011;41157;53.560;10.098;2022-11-20T13:40:26;2.50;;;2.30;;
55292;SDS011;41157;53.560;10.098;2022-11-20T13:45:26;2.30;;;2.10;;
55292;SDS011;41157;53.560;10.098;2022-11-20T13:47:52;5.03;;;2.20;;
55292;SDS011;41157;53.560;10.098;2022-11-20T13:50:19;3.27;;;2.33;;
55292;SDS011;41157;53.560;10.098;2022-11-20T14:00:13;2.40;;;2.20;;
55292;SDS011;41157;53.560;10.098;2022-11-20T14:02:40;2.27;;;2.07;;
55292;SDS011;41157;53.560;10.098;2022-11-20T14:05:11;3.10;;;2.37;;
55292;SDS011;41157;53.560;10.098;2022-11-20T14:07:41;2.83;;;2.20;;
55292;SDS011;41157;53.560;10.098;2022-11-20T14:10:21;2.03;;;1.93;;
55292;SDS011;41157;53.560;10.098;2022-11-20T14:12:47;2.20;;;1.80;;
55292;SDS011;41157;53.560;10.098;2022-11-20T14:15:27;3.67;;;2.20;;
55292;SDS011;41157;53.560;10.098;2022-11-20T14:17:53;2.63;;;2.17;;
55292;SDS011;41157;53.560;10.098;2022-11-20T14:20:19;1.80;;;1.70;;
55292;SDS011;41157;53.560;10.098;2022-11-20T14:22:48;3.20;;;2.40;;
55292;SDS011;41157;53.560;10.098;2022-11-20T14:27:42;3.13;;;2.47;;
55292;SDS011;41157;53.560;10.098;2022-11-20T14:30:15;2.30;;;2.10;;
55292;SDS011;41157;53.560;10.098;2022-11-20T14:32:41;2.30;;;2.20;;
55292;SDS011;41157;53.560;10.098;2022-11-20T14:35:09;3.20;;;2.20;;
55292;SDS011;41157;53.560;10.098;2022-11-20T14:37:38;2.93;;;2.17;;
55292;SDS011;41157;53.560;10.098;2022-11-20T14:40:21;2.60;;;2.40;;
55292;SDS011;41157;53.560;10.098;2022-11-20T14:42:48;2.73;;;2.53;;
55292;SDS011;41157;53.560;10.098;2022-11-20T14:45:13;2.73;;;2.53;;
55292;SDS011;41157;53.560;10.098;2022-11-20T14:47:40;3.20;;;2.70;;
55292;SDS011;41157;53.560;10.098;2022-11-20T14:50:12;2.77;;;2.53;;
55292;SDS011;41157;53.560;10.098;2022-11-20T14:52:38;3.50;;;2.70;;
55292;SDS011;41157;53.560;10.098;2022-11-20T14:55:24;4.50;;;2.87;;
55292;SDS011;41157;53.560;10.098;2022-11-20T14:57:54;4.03;;;2.60;;
55292;SDS011;41157;53.560;10.098;2022-11-20T15:00:21;3.13;;;2.57;;
55292;SDS011;41157;53.560;10.098;2022-11-20T15:02:48;3.57;;;2.67;;
55292;SDS011;41157;53.560;10.098;2022-11-20T15:05:15;2.87;;;2.50;;
55292;SDS011;41157;53.560;10.098;2022-11-20T15:07:43;3.47;;;2.90;;
55292;SDS011;41157;53.560;10.098;2022-11-20T15:10:20;3.67;;;2.90;;
55292;SDS011;41157;53.560;10.098;2022-11-20T15:12:53;4.90;;;3.27;;
55292;SDS011;41157;53.560;10.098;2022-11-20T15:15:25;3.47;;;2.90;;
55292;SDS011;41157;53.560;10.098;2022-11-20T15:17:55;3.93;;;3.00;;
55292;SDS011;41157;53.560;10.098;2022-11-20T15:20:21;3.80;;;3.10;;
55292;SDS011;41157;53.560;10.098;2022-11-20T15:22:48;7.07;;;3.37;;
55292;SDS011;41157;53.560;10.098;2022-11-20T15:25:15;5.03;;;3.60;;
55292;SDS011;41157;53.560;10.098;2022-11-20T15:27:42;4.73;;;3.43;;
55292;SDS011;41157;53.560;10.098;2022-11-20T15:30:12;3.87;;;3.10;;
55292;SDS011;41157;53.560;10.098;2022-11-20T15:32:39;3.30;;;2.70;;
55292;SDS011;41157;53.560;10.098;2022-11-20T15:35:05;3.53;;;2.50;;
55292;SDS011;41157;53.560;10.098;2022-11-20T15:37:31;3.53;;;2.27;;
55292;SDS011;41157;53.560;10.098;2022-11-20T15:39:57;4.80;;;3.23;;
55292;SDS011;41157;53.560;10.098;2022-11-20T15:42:23;5.67;;;3.90;;
55292;SDS011;41157;53.560;10.098;2022-11-20T15:44:49;7.60;;;5.13;;
55292;SDS011;41157;53.560;10.098;2022-11-20T15:47:15;7.70;;;5.10;;
55292;SDS011;41157;53.560;10.098;2022-11-20T15:49:42;6.20;;;4.20;;
55292;SDS011;41157;53.560;10.098;2022-11-20T15:52:09;4.33;;;3.90;;